Time;durP1;ratioP1;P1;durP2;ratioP2;P2;SDS_P1;SDS_P2;PMS_P1;PMS_P2;Temp;Humidity;BMP_temperature;BMP_pressure;BME280_temperature;BME280_humidity;BME280_pressure;Samples;Min_cycle;Max_cycle;Signal;HPM_P1;HPM_P2
2024/02/06 00:00:07;;;;;;;12.77;5.28;;;;;;;-146.25;100.00;52625.72;2095608;28;36975;-64
2024/02/06 00:01:10;;;;;;;10.00;5.00;;;;;;;-146.25;100.00;52593.25;2096208;28;20061;-64
2024/02/06 00:02:14;;;;;;;12.90;5.97;;;;;;;-146.25;100.00;52623.69;2095766;28;37558;-64
2024/02/06 00:03:19;;;;;;;10.80;5.22;;;;;;;-146.25;100.00;52615.56;2095637;28;35005;-64
2024/02/06 00:04:20;;;;;;;10.02;5.75;;;;;;;-146.25;100.00;52633.81;2095303;28;31786;-63
2024/02/06 00:05:22;;;;;;;11.88;5.97;;;;;;;-146.25;100.00;52639.91;2096249;28;32275;-64
2024/02/06 00:06:24;;;;;;;14.05;5.55;;;;;;;-146.25;100.00;52583.13;2096433;28;20029;-64
2024/02/06 00:07:26;;;;;;;10.60;5.53;;;;;;;-146.25;100.00;52652.06;2095430;28;39039;-64
2024/02/06 00:08:30;;;;;;;13.15;5.85;;;;;;;-146.25;100.00;52611.50;2096138;28;20053;-63
2024/02/06 00:09:31;;;;;;;12.05;5.75;;;;;;;-146.25;100.00;52623.69;2095787;28;36148;-64
2024/02/06 00:10:33;;;;;;;10.30;5.38;;;;;;;-146.25;100.00;52625.72;2095953;28;31500;-64
2024/02/06 00:11:35;;;;;;;13.63;6.13;;;;;;;-146.25;100.00;52570.97;2096303;28;20052;-63
2024/02/06 00:12:39;;;;;;;13.50;5.53;;;;;;;-146.25;100.00;52639.91;2096427;28;23069;-64
2024/02/06 00:13:44;;;;;;;12.63;5.55;;;;;;;-146.25;100.00;52593.25;2096703;28;20044;-64
2024/02/06 00:14:46;;;;;;;12.45;5.78;;;;;;;-146.25;100.00;52603.41;2095973;28;34942;-65
2024/02/06 00:15:48;;;;;;;10.43;5.18;;;;;;;-146.25;100.00;52613.53;2095930;28;36383;-64
2024/02/06 00:16:50;;;;;;;10.93;5.32;;;;;;;-146.25;100.00;52607.47;2095896;28;24569;-63
2024/02/06 00:17:52;;;;;;;9.90;5.45;;;;;;;-146.25;100.00;52627.75;2095936;28;33930;-64
2024/02/06 00:18:54;;;;;;;13.07;5.78;;;;;;;-146.25;100.00;52605.44;2094579;28;35999;-64
2024/02/06 00:20:00;;;;;;;14.15;5.78;;;;;;;-146.25;100.00;52609.50;2084102;28;37618;-64
2024/02/06 00:21:05;;;;;;;15.65;5.57;;;;;;;-146.25;100.00;52603.41;2088947;28;20041;-64
2024/02/06 00:22:06;;;;;;;15.27;5.97;;;;;;;-146.25;100.00;52619.63;2096035;28;34987;-64
2024/02/06 00:23:08;;;;;;;13.20;5.45;;;;;;;-146.25;100.00;52609.50;2095980;28;33158;-64
2024/02/06 00:24:11;;;;;;;10.52;5.15;;;;;;;-146.25;100.00;52641.94;2096211;28;20037;-64
2024/02/06 00:25:12;;;;;;;16.17;5.78;;;;;;;-146.25;100.00;52599.34;2087105;28;32159;-64
2024/02/06 00:26:14;;;;;;;11.50;5.55;;;;;;;-146.25;100.00;52589.22;2087759;28;20038;-64
2024/02/06 00:27:16;;;;;;;14.18;5.57;;;;;;;-146.25;100.00;52581.09;2095492;28;35310;-64
2024/02/06 00:28:18;;;;;;;12.85;4.75;;;;;;;-146.25;100.00;52607.47;2095955;28;33715;-64
2024/02/06 00:29:24;;;;;;;15.13;5.43;;;;;;;-146.25;100.00;52613.53;2096284;28;20037;-63
2024/02/06 00:30:26;;;;;;;10.88;5.30;;;;;;;-146.25;100.00;52603.41;2095572;28;35801;-63
2024/02/06 00:31:28;;;;;;;10.80;5.53;;;;;;;-146.25;100.00;52633.81;2096001;28;33020;-64
2024/02/06 00:32:32;;;;;;;11.38;5.22;;;;;;;-146.25;100.00;52603.41;2095480;28;35978;-63
2024/02/06 00:33:33;;;;;;;13.73;5.10;;;;;;;-146.25;100.00;52627.75;2095664;28;36906;-64
2024/02/06 00:34:37;;;;;;;15.60;6.10;;;;;;;-146.25;100.00;52611.50;2096010;28;20084;-64
2024/02/06 00:35:40;;;;;;;13.05;5.80;;;;;;;-146.25;100.00;52631.78;2095461;28;38585;-63
2024/02/06 00:36:42;;;;;;;15.43;5.18;;;;;;;-146.25;100.00;52603.41;2095890;28;36817;-63
2024/02/06 00:37:45;;;;;;;17.00;4.82;;;;;;;-146.25;100.00;52597.31;2097189;28;20163;-64
2024/02/06 00:38:47;;;;;;;10.23;4.97;;;;;;;-146.25;100.00;52627.75;2095380;28;35385;-64
2024/02/06 00:39:50;;;;;;;15.95;5.32;;;;;;;-146.25;100.00;52613.53;2095630;28;33715;-64
2024/02/06 00:40:51;;;;;;;13.07;4.97;;;;;;;-146.25;100.00;52593.25;2094900;28;36357;-63
2024/02/06 00:41:53;;;;;;;15.07;4.65;;;;;;;-146.25;100.00;52611.50;2096095;28;31308;-64
2024/02/06 00:42:55;;;;;;;19.63;5.57;;;;;;;-146.25;100.00;52615.56;2095525;28;37069;-64
2024/02/06 00:43:57;;;;;;;18.23;5.28;;;;;;;-146.25;100.00;52609.50;2096346;28;20029;-64
2024/02/06 00:44:59;;;;;;;15.57;5.30;;;;;;;-146.25;100.00;52648.00;2095554;28;37885;-64
2024/02/06 00:46:01;;;;;;;13.65;4.90;;;;;;;-146.25;100.00;52603.41;2095592;28;32220;-64
2024/02/06 00:47:03;;;;;;;10.23;4.68;;;;;;;-146.25;100.00;52629.75;2095916;28;30695;-64
2024/02/06 00:48:05;;;;;;;12.27;5.10;;;;;;;-146.25;100.00;52645.97;2095632;28;35993;-63
2024/02/06 00:49:07;;;;;;;12.55;4.97;;;;;;;-146.25;100.00;52589.22;2096182;28;20045;-64
2024/02/06 00:50:11;;;;;;;12.68;4.53;;;;;;;-146.25;100.00;52587.19;2095442;28;38513;-63
2024/02/06 00:51:13;;;;;;;11.90;5.05;;;;;;;-146.25;100.00;52593.25;2095606;28;36180;-64
2024/02/06 00:52:15;;;;;;;14.63;4.88;;;;;;;-146.25;100.00;52605.44;2095258;28;36114;-64
2024/02/06 00:53:19;;;;;;;12.30;5.05;;;;;;;-146.25;100.00;52625.72;2095690;28;39336;-64
2024/02/06 00:54:21;;;;;;;13.77;4.68;;;;;;;-146.25;100.00;52627.75;2095434;28;32204;-64
2024/02/06 00:55:25;;;;;;;14.82;4.90;;;;;;;-146.25;100.00;52603.41;2095776;28;37232;-64
2024/02/06 00:56:27;;;;;;;10.55;4.55;;;;;;;-146.25;100.00;52615.56;2096224;28;20126;-64
2024/02/06 00:57:28;;;;;;;13.20;4.35;;;;;;;-146.25;100.00;52633.81;2095602;28;38060;-64
2024/02/06 00:58:30;;;;;;;14.35;4.75;;;;;;;-146.25;100.00;52591.25;2096944;28;33506;-63
2024/02/06 00:59:32;;;;;;;12.00;4.55;;;;;;;-146.25;100.00;52623.69;2097347;28;37987;-64
2024/02/06 01:00:36;;;;;;;11.32;4.47;;;;;;;-146.25;100.00;52609.50;2097027;28;37405;-64
2024/02/06 01:01:38;;;;;;;12.52;4.80;;;;;;;-146.25;100.00;52625.72;2097670;28;20053;-64
2024/02/06 01:02:40;;;;;;;13.90;4.45;;;;;;;-146.25;100.00;52585.16;2096960;28;32820;-63
2024/02/06 01:03:44;;;;;;;12.60;4.53;;;;;;;-146.25;100.00;52603.41;2097316;28;34593;-64
2024/02/06 01:04:46;;;;;;;13.07;4.10;;;;;;;-146.25;100.00;52621.66;2096716;28;32173;-64
2024/02/06 01:05:48;;;;;;;9.48;4.45;;;;;;;-146.25;100.00;52629.75;2097058;28;36402;-63
2024/02/06 01:06:49;;;;;;;11.85;4.22;;;;;;;-146.25;100.00;52601.38;2097523;28;20844;-63
2024/02/06 01:07:51;;;;;;;11.85;4.60;;;;;;;-146.25;100.00;52656.13;2096559;28;35938;-64
2024/02/06 01:08:53;;;;;;;10.20;3.92;;;;;;;-146.25;100.00;52609.50;2097759;28;20044;-64
2024/02/06 01:09:55;;;;;;;12.27;4.18;;;;;;;-146.25;100.00;52615.56;2096800;28;35777;-64
2024/02/06 01:10:57;;;;;;;13.30;4.00;;;;;;;-146.25;100.00;52546.63;2097366;28;29978;-64
2024/02/06 01:11:59;;;;;;;14.57;4.75;;;;;;;-146.25;100.00;52627.75;2097190;28;34708;-64
2024/02/06 01:13:00;;;;;;;10.88;3.47;;;;;;;-146.25;100.00;52637.88;2096807;28;35693;-64
2024/02/06 01:14:02;;;;;;;10.27;4.03;;;;;;;-146.25;100.00;52623.69;2097708;28;20149;-63
2024/02/06 01:15:05;;;;;;;13.13;4.43;;;;;;;-146.25;100.00;52637.88;2096983;28;34144;-64
2024/02/06 01:16:07;;;;;;;11.45;4.07;;;;;;;-146.25;100.00;52581.09;2096885;28;32755;-65
2024/02/06 01:17:10;;;;;;;11.57;3.30;;;;;;;-146.25;100.00;52678.44;2097396;28;20075;-64
2024/02/06 01:18:12;;;;;;;11.55;4.15;;;;;;;-146.25;100.00;52645.97;2097018;28;32246;-63
2024/02/06 01:19:13;;;;;;;13.27;3.97;;;;;;;-146.25;100.00;52629.75;2096559;28;34085;-62
2024/02/06 01:20:15;;;;;;;12.30;3.63;;;;;;;-146.25;100.00;52599.34;2096926;28;35538;-63
2024/02/06 01:21:18;;;;;;;14.25;4.07;;;;;;;-146.25;100.00;52607.47;2098209;28;20041;-63
2024/02/06 01:22:20;;;;;;;13.07;4.40;;;;;;;-146.25;100.00;52639.91;2096806;28;33827;-63
2024/02/06 01:23:21;;;;;;;12.38;4.15;;;;;;;-146.25;100.00;52623.69;2096642;28;32122;-64
2024/02/06 01:24:26;;;;;;;14.80;4.28;;;;;;;-146.25;100.00;52627.75;2097265;28;33581;-64
2024/02/06 01:25:30;;;;;;;8.43;3.80;;;;;;;-146.25;100.00;52595.28;2097129;28;32890;-62
2024/02/06 01:26:31;;;;;;;15.80;4.72;;;;;;;-146.25;100.00;52643.97;2096503;28;37832;-63
2024/02/06 01:27:33;;;;;;;12.63;4.10;;;;;;;-146.25;100.00;52621.66;2097547;28;20029;-62
2024/02/06 01:28:35;;;;;;;14.00;4.28;;;;;;;-146.25;100.00;52648.00;2096817;28;34815;-62
2024/02/06 01:29:37;;;;;;;19.77;4.53;;;;;;;-146.25;100.00;52631.78;2096460;28;33192;-62
2024/02/06 01:30:39;;;;;;;12.68;4.60;;;;;;;-146.25;100.00;52637.88;2096996;28;34714;-62
2024/02/06 01:31:41;;;;;;;12.45;3.70;;;;;;;-146.25;100.00;52605.44;2096604;28;35713;-63
2024/02/06 01:32:45;;;;;;;12.70;4.22;;;;;;;-146.25;100.00;52619.63;2096807;28;34305;-63
2024/02/06 01:33:47;;;;;;;12.52;3.97;;;;;;;-146.25;100.00;52581.09;2097039;28;32201;-63
2024/02/06 01:34:49;;;;;;;12.70;3.90;;;;;;;-146.25;100.00;52664.22;2096196;28;38839;-63
2024/02/06 01:35:51;;;;;;;10.45;3.65;;;;;;;-146.25;100.00;52597.31;2096782;28;20041;-63
2024/02/06 01:36:53;;;;;;;13.95;3.90;;;;;;;-146.25;100.00;52609.50;2097167;28;36764;-63
2024/02/06 01:37:59;;;;;;;14.25;4.30;;;;;;;-146.25;100.00;52637.88;2096853;28;20049;-62
2024/02/06 01:39:01;;;;;;;10.43;3.70;;;;;;;-146.25;100.00;52597.31;2096776;28;31147;-63
2024/02/06 01:40:04;;;;;;;18.23;4.50;;;;;;;-146.25;100.00;52595.28;2097382;28;37674;-63
2024/02/06 01:41:07;;;;;;;15.27;4.25;;;;;;;-146.25;100.00;52609.50;2096815;28;35348;-63
2024/02/06 01:42:10;;;;;;;14.60;3.85;;;;;;;-146.25;100.00;52597.31;2096767;28;34676;-63
2024/02/06 01:43:13;;;;;;;14.77;3.92;;;;;;;-146.25;100.00;52615.56;2094183;28;35315;-63
2024/02/06 01:44:15;;;;;;;12.98;4.00;;;;;;;-146.25;100.00;52591.25;2088678;28;35367;-63
2024/02/06 01:45:21;;;;;;;9.73;3.83;;;;;;;-146.25;100.00;52656.13;2088087;28;36174;-64
2024/02/06 01:46:23;;;;;;;14.27;4.30;;;;;;;-146.25;100.00;52674.38;2089199;28;20073;-63
2024/02/06 01:47:27;;;;;;;14.77;4.85;;;;;;;-146.25;100.00;52613.53;2088485;28;33510;-63
2024/02/06 01:48:29;;;;;;;14.20;3.97;;;;;;;-146.25;100.00;52593.25;2088345;28;27032;-63
2024/02/06 01:49:35;;;;;;;12.77;4.25;;;;;;;-146.25;100.00;52639.91;2088369;28;20045;-64
2024/02/06 01:50:40;;;;;;;11.15;3.58;;;;;;;-146.25;100.00;52615.56;2079907;28;36049;-63
2024/02/06 01:51:45;;;;;;;18.48;4.10;;;;;;;-146.25;100.00;52629.75;2080500;28;34012;-63
2024/02/06 01:52:48;;;;;;;13.02;4.43;;;;;;;-146.25;100.00;52607.47;2079992;28;33013;-63
2024/02/06 01:53:53;;;;;;;12.65;4.05;;;;;;;-146.25;100.00;52619.63;2079342;28;34546;-64
2024/02/06 01:54:55;;;;;;;11.80;4.30;;;;;;;-146.25;100.00;52666.25;2080992;28;20053;-63
2024/02/06 01:56:03;;;;;;;12.18;3.95;;;;;;;-146.25;100.00;52599.34;2088833;28;20038;-63
2024/02/06 01:57:05;;;;;;;12.98;4.00;;;;;;;-146.25;100.00;52627.75;2080156;28;20120;-63
2024/02/06 01:58:07;;;;;;;17.55;4.38;;;;;;;-146.25;100.00;52613.53;2079482;28;35279;-64
2024/02/06 01:59:11;;;;;;;13.23;3.65;;;;;;;-146.25;100.00;52570.97;2080648;28;20085;-63
2024/02/06 02:00:14;;;;;;;14.50;4.00;;;;;;;-146.25;100.00;52631.78;2088150;28;35444;-64
2024/02/06 02:01:16;;;;;;;12.50;3.88;;;;;;;-146.25;100.00;52631.78;2079391;28;36289;-63
2024/02/06 02:02:19;;;;;;;12.27;3.55;;;;;;;-146.25;100.00;52662.22;2079370;28;32903;-63
2024/02/06 02:03:22;;;;;;;12.88;3.95;;;;;;;-146.25;100.00;52631.78;2071692;28;34601;-63
2024/02/06 02:04:26;;;;;;;12.13;4.00;;;;;;;-146.25;100.00;52599.34;2088489;28;20041;-62
2024/02/06 02:05:29;;;;;;;14.70;4.13;;;;;;;-146.25;100.00;52635.84;2095584;28;36318;-63
2024/02/06 02:06:31;;;;;;;12.00;3.50;;;;;;;-146.25;100.00;52623.69;2087926;28;37159;-63
2024/02/06 02:07:35;;;;;;;15.45;3.83;;;;;;;-146.25;100.00;52650.03;2088604;28;32251;-63
2024/02/06 02:08:38;;;;;;;10.30;3.70;;;;;;;-146.25;100.00;52631.78;2087635;28;36948;-63
2024/02/06 02:09:40;;;;;;;15.18;4.25;;;;;;;-146.25;100.00;52570.97;2078493;28;31340;-64
2024/02/06 02:10:44;;;;;;;12.88;3.80;;;;;;;-146.25;100.00;52599.34;2079931;28;20038;-64
2024/02/06 02:11:46;;;;;;;14.85;4.03;;;;;;;-146.25;100.00;52635.84;2080071;28;33685;-63
2024/02/06 02:12:50;;;;;;;13.00;3.95;;;;;;;-146.25;100.00;52605.44;2088164;28;29174;-63
2024/02/06 02:13:52;;;;;;;12.65;3.60;;;;;;;-146.25;100.00;52623.69;2087958;28;36163;-63
2024/02/06 02:14:54;;;;;;;17.25;4.15;;;;;;;-146.25;100.00;52645.97;2088482;28;20073;-62
2024/02/06 02:15:59;;;;;;;11.88;3.65;;;;;;;-146.25;100.00;52591.25;2088006;28;38059;-64
2024/02/06 02:17:01;;;;;;;14.23;3.47;;;;;;;-146.25;100.00;52621.66;2087790;28;34986;-62
2024/02/06 02:18:07;;;;;;;13.73;3.15;;;;;;;-146.25;100.00;52579.06;2088562;28;31210;-64
2024/02/06 02:19:13;;;;;;;13.48;3.88;;;;;;;-146.25;100.00;52629.75;2087763;28;39972;-65
2024/02/06 02:20:17;;;;;;;13.75;3.70;;;;;;;-146.25;100.00;52637.88;2088696;28;20166;-63
2024/02/06 02:21:21;;;;;;;12.90;3.33;;;;;;;-146.25;100.00;52613.53;2087834;28;38085;-63
2024/02/06 02:22:23;;;;;;;12.20;3.40;;;;;;;-146.25;100.00;52635.84;2088376;28;36468;-63
2024/02/06 02:23:26;;;;;;;13.20;3.35;;;;;;;-146.25;100.00;52593.25;2088064;28;31974;-63
2024/02/06 02:24:30;;;;;;;12.45;3.20;;;;;;;-146.25;100.00;52621.66;2079161;28;39652;-63
2024/02/06 02:25:32;;;;;;;13.63;3.42;;;;;;;-146.25;100.00;52615.56;2079908;28;20896;-63
2024/02/06 02:26:36;;;;;;;13.80;3.42;;;;;;;-146.25;100.00;52631.78;2088235;28;37049;-65
2024/02/06 02:27:38;;;;;;;15.52;3.33;;;;;;;-146.25;100.00;52611.50;2088745;28;20076;-64
2024/02/06 02:28:42;;;;;;;10.55;2.67;;;;;;;-146.25;100.00;52599.34;2079439;28;35755;-63
2024/02/06 02:29:45;;;;;;;15.88;3.40;;;;;;;-146.25;100.00;52570.97;2079648;28;34104;-64
2024/02/06 02:30:47;;;;;;;11.98;4.00;;;;;;;-146.25;100.00;52617.59;2079899;28;20038;-65
2024/02/06 02:31:50;;;;;;;9.75;3.00;;;;;;;-146.25;100.00;52650.03;2079441;28;37292;-62
2024/02/06 02:32:54;;;;;;;13.75;3.58;;;;;;;-146.25;100.00;52609.50;2079204;28;35816;-62
2024/02/06 02:33:56;;;;;;;14.48;3.20;;;;;;;-146.25;100.00;52611.50;2078640;28;35075;-62
2024/02/06 02:34:58;;;;;;;14.02;3.40;;;;;;;-146.25;100.00;52621.66;2079713;28;38206;-62
2024/02/06 02:36:04;;;;;;;12.88;3.20;;;;;;;-146.25;100.00;52627.75;2087855;28;33751;-62
2024/02/06 02:37:06;;;;;;;14.30;3.42;;;;;;;-146.25;100.00;52615.56;2088085;28;34588;-63
2024/02/06 02:38:08;;;;;;;11.18;3.03;;;;;;;-146.25;100.00;52629.75;2088064;28;38059;-63
2024/02/06 02:39:12;;;;;;;12.68;3.17;;;;;;;-146.25;100.00;52658.16;2088592;28;20048;-62
2024/02/06 02:40:14;;;;;;;13.95;3.35;;;;;;;-146.25;100.00;52639.91;2087771;28;36237;-63
2024/02/06 02:41:18;;;;;;;10.75;3.00;;;;;;;-146.25;100.00;52635.84;2087909;28;34267;-63
2024/02/06 02:42:22;;;;;;;14.70;3.15;;;;;;;-146.25;100.00;52648.00;2087597;28;34209;-63
2024/02/06 02:43:24;;;;;;;8.55;2.78;;;;;;;-146.25;100.00;52631.78;2088161;28;34977;-63
2024/02/06 02:44:26;;;;;;;9.73;2.72;;;;;;;-146.25;100.00;52629.75;2088314;28;20085;-63
2024/02/06 02:45:28;;;;;;;14.90;3.15;;;;;;;-146.25;100.00;52650.03;2088185;28;37419;-62
2024/02/06 02:46:29;;;;;;;10.98;3.50;;;;;;;-146.25;100.00;52631.78;2087989;28;30850;-63
2024/02/06 02:47:33;;;;;;;12.48;2.97;;;;;;;-146.25;100.00;52589.22;2087990;28;32836;-63
2024/02/06 02:48:35;;;;;;;8.15;2.72;;;;;;;-146.25;100.00;52645.97;2087681;28;36663;-63
2024/02/06 02:49:37;;;;;;;9.55;2.72;;;;;;;-146.25;100.00;52627.75;2088652;28;20778;-63
2024/02/06 02:50:41;;;;;;;14.65;3.00;;;;;;;-146.25;100.00;52593.25;2087656;28;37051;-63
2024/02/06 02:51:43;;;;;;;11.02;3.03;;;;;;;-146.25;100.00;52660.19;2088562;28;35165;-63
2024/02/06 02:52:45;;;;;;;13.68;3.38;;;;;;;-146.25;100.00;52617.59;2087862;28;36595;-63
2024/02/06 02:53:47;;;;;;;10.88;3.03;;;;;;;-146.25;100.00;52631.78;2087807;28;37821;-63
2024/02/06 02:54:48;;;;;;;16.15;3.22;;;;;;;-146.25;100.00;52611.50;2088496;28;20159;-62
2024/02/06 02:55:50;;;;;;;12.80;3.40;;;;;;;-146.25;100.00;52613.53;2088105;28;34710;-63
2024/02/06 02:56:53;;;;;;;11.57;3.38;;;;;;;-146.25;100.00;52625.72;2087314;28;38344;-63
2024/02/06 02:57:55;;;;;;;14.95;3.20;;;;;;;-146.25;100.00;52575.00;2088584;28;20095;-63
2024/02/06 02:58:57;;;;;;;11.73;3.30;;;;;;;-146.25;100.00;52633.81;2087043;28;39124;-63
2024/02/06 02:59:59;;;;;;;16.02;3.55;;;;;;;-146.25;100.00;52609.50;2088742;28;32920;-63
2024/02/06 03:01:01;;;;;;;9.75;3.08;;;;;;;-146.25;100.00;52583.13;2093988;28;33830;-60
2024/02/06 03:02:02;;;;;;;12.38;2.92;;;;;;;-146.25;100.00;52631.78;2096503;28;37644;-63
2024/02/06 03:03:06;;;;;;;12.45;2.95;;;;;;;-146.25;100.00;52615.56;2096753;28;20927;-62
2024/02/06 03:04:08;;;;;;;9.65;3.30;;;;;;;-146.25;100.00;52615.56;2096453;28;40976;-63
2024/02/06 03:05:12;;;;;;;13.98;3.33;;;;;;;-146.25;100.00;52607.47;2095931;28;30320;-62
2024/02/06 03:06:20;;;;;;;12.13;3.80;;;;;;;-146.25;100.00;52623.69;2096320;28;34652;-63
2024/02/06 03:07:22;;;;;;;9.40;2.80;;;;;;;-146.25;100.00;52570.97;2095906;28;38251;-63
2024/02/06 03:08:24;;;;;;;11.00;3.20;;;;;;;-146.25;100.00;52629.75;2097239;28;20799;-63
2024/02/06 03:09:27;;;;;;;12.50;3.70;;;;;;;-146.25;100.00;52688.56;2095921;28;31598;-63
2024/02/06 03:10:29;;;;;;;12.52;2.83;;;;;;;-146.25;100.00;52639.91;2096340;28;32646;-63
2024/02/06 03:11:31;;;;;;;9.45;2.80;;;;;;;-146.25;100.00;52603.41;2095849;28;34034;-63
2024/02/06 03:12:33;;;;;;;14.30;3.80;;;;;;;-146.25;100.00;52648.00;2087440;28;36919;-63
2024/02/06 03:13:41;;;;;;;14.88;3.10;;;;;;;-146.25;100.00;52678.44;2088081;28;20037;-64
2024/02/06 03:14:43;;;;;;;13.38;3.33;;;;;;;-146.25;100.00;52641.94;2088280;28;31378;-63
2024/02/06 03:15:44;;;;;;;12.63;3.33;;;;;;;-146.25;100.00;52617.59;2087660;28;34139;-63
2024/02/06 03:16:47;;;;;;;8.23;3.35;;;;;;;-146.25;100.00;52617.59;2087861;28;34897;-63
2024/02/06 03:17:51;;;;;;;13.65;3.47;;;;;;;-146.25;100.00;52648.00;2087592;28;37786;-63
2024/02/06 03:18:53;;;;;;;12.00;3.60;;;;;;;-146.25;100.00;52603.41;2088652;28;20087;-63
2024/02/06 03:19:58;;;;;;;11.25;3.47;;;;;;;-146.25;100.00;52597.31;2087151;28;35264;-63
2024/02/06 03:21:00;;;;;;;8.93;3.45;;;;;;;-146.25;100.00;52581.09;2087676;28;34268;-63
2024/02/06 03:22:03;;;;;;;10.40;3.40;;;;;;;-146.25;100.00;52623.69;2088091;28;20045;-63
2024/02/06 03:23:05;;;;;;;11.65;4.05;;;;;;;-146.25;100.00;52607.47;2087787;28;37390;-64
2024/02/06 03:24:07;;;;;;;12.25;3.17;;;;;;;-146.25;100.00;52595.28;2087668;28;32574;-63
2024/02/06 03:25:08;;;;;;;18.17;3.83;;;;;;;-146.25;100.00;52631.78;2088591;28;20041;-63
2024/02/06 03:26:10;;;;;;;12.48;3.80;;;;;;;-146.25;100.00;52633.81;2087535;28;33507;-63
2024/02/06 03:27:12;;;;;;;12.02;3.83;;;;;;;-146.25;100.00;52650.03;2087654;28;31584;-63
2024/02/06 03:28:14;;;;;;;11.68;3.75;;;;;;;-146.25;100.00;52629.75;2087257;28;36952;-64
2024/02/06 03:29:16;;;;;;;13.77;3.90;;;;;;;-146.25;100.00;52605.44;2087449;28;32960;-64
2024/02/06 03:30:18;;;;;;;17.00;4.40;;;;;;;-146.25;100.00;52650.03;2087721;28;20934;-63
2024/02/06 03:31:23;;;;;;;16.55;4.40;;;;;;;-146.25;100.00;52611.50;2087082;28;35976;-63
2024/02/06 03:32:25;;;;;;;12.30;3.50;;;;;;;-146.25;100.00;52633.81;2087610;28;33525;-63
2024/02/06 03:33:27;;;;;;;13.85;3.60;;;;;;;-146.25;100.00;52607.47;2087700;28;34516;-63
2024/02/06 03:34:29;;;;;;;13.73;3.83;;;;;;;-146.25;100.00;52611.50;2087578;28;35402;-63
2024/02/06 03:35:31;;;;;;;10.93;4.20;;;;;;;-146.25;100.00;52615.56;2088301;28;20037;-63
2024/02/06 03:36:33;;;;;;;15.05;3.80;;;;;;;-146.25;100.00;52560.81;2087703;28;32727;-63
2024/02/06 03:37:35;;;;;;;14.00;4.00;;;;;;;-146.25;100.00;52627.75;2087666;28;35462;-62
2024/02/06 03:38:37;;;;;;;12.23;3.78;;;;;;;-146.25;100.00;52611.50;2087424;28;33872;-63
2024/02/06 03:39:42;;;;;;;13.27;4.32;;;;;;;-146.25;100.00;52627.75;2087658;28;36788;-63
2024/02/06 03:40:46;;;;;;;14.30;3.90;;;;;;;-146.25;100.00;52623.69;2087230;28;34900;-62
2024/02/06 03:41:49;;;;;;;14.15;4.60;;;;;;;-146.25;100.00;52607.47;2087489;28;38223;-62
2024/02/06 03:42:50;;;;;;;13.13;4.20;;;;;;;-146.25;100.00;52654.09;2087111;28;31019;-62
2024/02/06 03:43:55;;;;;;;15.90;3.88;;;;;;;-146.25;100.00;52629.75;2093796;28;34785;-62
2024/02/06 03:44:56;;;;;;;12.75;4.45;;;;;;;-146.25;100.00;52639.91;2094657;28;35075;-63
2024/02/06 03:45:58;;;;;;;16.48;4.60;;;;;;;-146.25;100.00;52639.91;2095345;28;33632;-64
2024/02/06 03:47:00;;;;;;;13.10;4.63;;;;;;;-146.25;100.00;52635.84;2095212;28;28666;-63
2024/02/06 03:48:02;;;;;;;12.68;4.18;;;;;;;-146.25;100.00;52635.84;2095862;28;20053;-63
2024/02/06 03:49:04;;;;;;;12.90;4.20;;;;;;;-146.25;100.00;52641.94;2095806;28;20052;-63
2024/02/06 03:50:10;;;;;;;16.33;3.88;;;;;;;-146.25;100.00;52623.69;2095278;28;33245;-64
2024/02/06 03:51:12;;;;;;;13.70;4.20;;;;;;;-146.25;100.00;52643.97;2095204;28;33931;-63
2024/02/06 03:52:14;;;;;;;16.73;3.90;;;;;;;-146.25;100.00;52579.06;2095536;28;37453;-64
2024/02/06 03:53:16;;;;;;;14.52;4.40;;;;;;;-146.25;100.00;52633.81;2095787;28;20033;-64
2024/02/06 03:54:18;;;;;;;12.70;4.07;;;;;;;-146.25;100.00;52631.78;2095657;28;34680;-64
2024/02/06 03:55:19;;;;;;;16.20;4.40;;;;;;;-146.25;100.00;52650.03;2095316;28;33443;-63
2024/02/06 03:56:22;;;;;;;13.75;4.30;;;;;;;-146.25;100.00;52589.22;2095252;28;34390;-64
2024/02/06 03:57:23;;;;;;;18.48;4.45;;;;;;;-146.25;100.00;52643.97;2095138;28;38292;-64
2024/02/06 03:58:25;;;;;;;18.15;4.38;;;;;;;-146.25;100.00;52643.97;2096605;28;20033;-64
2024/02/06 03:59:27;;;;;;;14.98;4.43;;;;;;;-146.25;100.00;52650.03;2094885;28;34426;-63
2024/02/06 04:00:29;;;;;;;18.00;4.55;;;;;;;-146.25;100.00;52601.38;2095750;28;35157;-64
2024/02/06 04:01:31;;;;;;;13.23;3.97;;;;;;;-146.25;100.00;52639.91;2095186;28;31942;-63
2024/02/06 04:02:32;;;;;;;14.18;4.68;;;;;;;-146.25;100.00;52635.84;2095265;28;37178;-63
2024/02/06 04:03:35;;;;;;;16.27;4.60;;;;;;;-146.25;100.00;52633.81;2095108;28;34244;-63
2024/02/06 04:04:37;;;;;;;11.27;3.95;;;;;;;-146.25;100.00;52623.69;2095139;28;36808;-64
2024/02/06 04:05:39;;;;;;;12.88;4.15;;;;;;;-146.25;100.00;52637.88;2094773;28;36116;-63
2024/02/06 04:06:41;;;;;;;14.88;4.03;;;;;;;-146.25;100.00;52605.44;2095533;28;32097;-63
2024/02/06 04:07:42;;;;;;;14.98;3.92;;;;;;;-146.25;100.00;52597.31;2094709;28;37601;-63
2024/02/06 04:08:44;;;;;;;14.77;3.78;;;;;;;-146.25;100.00;52631.78;2095737;28;34504;-63
2024/02/06 04:09:49;;;;;;;18.63;4.57;;;;;;;-146.25;100.00;52609.50;2094925;28;34268;-63
2024/02/06 04:10:50;;;;;;;15.27;4.22;;;;;;;-146.25;100.00;52591.25;2095934;28;20118;-63
2024/02/06 04:11:52;;;;;;;12.48;3.88;;;;;;;-146.25;100.00;52635.84;2094765;28;33964;-63
2024/02/06 04:12:54;;;;;;;12.93;3.70;;;;;;;-146.25;100.00;52652.06;2095940;28;26113;-63
2024/02/06 04:13:56;;;;;;;15.80;4.25;;;;;;;-146.25;100.00;52615.56;2095104;28;35052;-64
2024/02/06 04:14:59;;;;;;;15.20;4.28;;;;;;;-146.25;100.00;52623.69;2094812;28;37890;-64
2024/02/06 04:16:01;;;;;;;14.80;4.13;;;;;;;-146.25;100.00;52603.41;2094803;28;36131;-64
2024/02/06 04:17:02;;;;;;;15.82;3.55;;;;;;;-146.25;100.00;52637.88;2095228;28;32027;-64
2024/02/06 04:18:05;;;;;;;10.95;3.47;;;;;;;-146.25;100.00;52635.84;2095209;28;35606;-64
2024/02/06 04:19:06;;;;;;;13.57;4.03;;;;;;;-146.25;100.00;52615.56;2095844;28;38914;-63
2024/02/06 04:20:08;;;;;;;13.32;3.75;;;;;;;-146.25;100.00;52589.22;2095421;28;31533;-63
2024/02/06 04:21:10;;;;;;;15.73;3.90;;;;;;;-146.25;100.00;52605.44;2095178;28;35732;-62
2024/02/06 04:22:12;;;;;;;13.70;3.63;;;;;;;-146.25;100.00;52609.50;2094801;28;34342;-63
2024/02/06 04:23:14;;;;;;;20.80;4.03;;;;;;;-146.25;100.00;52627.75;2095588;28;32948;-63
2024/02/06 04:24:18;;;;;;;21.10;4.40;;;;;;;-146.25;100.00;52615.56;2094869;28;34016;-63
2024/02/06 04:25:20;;;;;;;13.90;4.07;;;;;;;-146.25;100.00;52641.94;2086299;28;35225;-63
2024/02/06 04:26:22;;;;;;;18.27;3.88;;;;;;;-146.25;100.00;52615.56;2086533;28;33535;-63
2024/02/06 04:27:23;;;;;;;18.38;3.75;;;;;;;-146.25;100.00;52587.19;2095718;28;34780;-64
2024/02/06 04:28:25;;;;;;;14.85;3.88;;;;;;;-146.25;100.00;52599.34;2095102;28;34229;-64
2024/02/06 04:29:27;;;;;;;12.48;3.45;;;;;;;-146.25;100.00;52619.63;2095105;28;33747;-63
2024/02/06 04:30:28;;;;;;;12.02;4.10;;;;;;;-146.25;100.00;52658.16;2095249;28;35135;-63
2024/02/06 04:31:33;;;;;;;15.70;3.65;;;;;;;-146.25;100.00;52623.69;2096024;28;20946;-64
2024/02/06 04:32:35;;;;;;;18.60;3.70;;;;;;;-146.25;100.00;52609.50;2095026;28;35575;-63
2024/02/06 04:33:36;;;;;;;14.20;3.58;;;;;;;-146.25;100.00;52607.47;2096720;28;35139;-63
2024/02/06 04:34:38;;;;;;;12.18;3.33;;;;;;;-146.25;100.00;52619.63;2096886;28;31317;-63
2024/02/06 04:35:41;;;;;;;14.68;3.33;;;;;;;-146.25;100.00;52603.41;2087654;28;36723;-63
2024/02/06 04:36:48;;;;;;;19.45;3.70;;;;;;;-146.25;100.00;52641.94;2087482;28;36358;-63
2024/02/06 04:37:49;;;;;;;14.68;3.70;;;;;;;-146.25;100.00;52627.75;2097334;28;33856;-63
2024/02/06 04:38:51;;;;;;;14.35;3.35;;;;;;;-146.25;100.00;52619.63;2096301;28;35231;-63
2024/02/06 04:39:53;;;;;;;11.70;3.38;;;;;;;-146.25;100.00;52633.81;2097013;28;31476;-63
2024/02/06 04:40:55;;;;;;;18.42;4.18;;;;;;;-146.25;100.00;52674.38;2058110;28;1093678;-64